This is the latest recevied weather packets stored in our database for station/object SAVIL. If no packets are shown the sender has not sent any weather packets the latest 10 day(s).
| Time | Temp. | Humidity | Pressure | Rain* | Wind** | Luminosity | Snow |
|---|---|---|---|---|---|---|---|
| 1788473080 | 12.22° C | 87% | 1001.8 hPa | 0 mm | - | - | - |
| 1788470681 | 12.22° C | 86% | 1001.9 hPa | 0 mm | - | - | - |
| 1788469481 | 11.67° C | 90% | 1002.1 hPa | 0 mm | - | - | - |
| 1788469270 | 12.22° C | 87% | 1002.1 hPa | 0 mm | - | - | - |
| 1788467081 | 12.22° C | 90% | 1002 hPa | 0 mm | - | - | - |
| 1788465881 | 11.67° C | 96% | 1002 hPa | 0 mm | - | - | - |
| 1788463480 | 12.22° C | 95% | 1002.2 hPa | 0 mm | - | - | - |
| 1788440679 | 13.33° C | 84% | 1003 hPa | 1.78 mm | - | - | - |
| 1788437079 | 16.11° C | 72% | 1003.1 hPa | 0 mm | - | - | - |
| 1788435879 | 16.67° C | 70% | 1003.1 hPa | 0 mm | - | - | - |
| 1788433479 | 17.78° C | 71% | 1003.3 hPa | 0 mm | - | - | - |
| 1788432279 | 16.11° C | 73% | 1003.4 hPa | 0 mm | - | - | - |
| 1788431078 | 15.56° C | 78% | 1003.6 hPa | 0 mm | - | - | - |
| 1788429878 | 15.56° C | 78% | 1003.8 hPa | 0 mm | - | - | - |
| 1788428679 | 15° C | 78% | 1003.9 hPa | 0 mm | - | - | - |
| 1788427479 | 15° C | 80% | 1003.9 hPa | 0 mm | - | - | - |
| 1788426277 | 15° C | 82% | 1003.9 hPa | 0 mm | - | - | - |
| 1788425078 | 15° C | 81% | 1003.8 hPa | 0 mm | - | - | - |
| 1788423878 | 15.56° C | 79% | 1003.7 hPa | 0 mm | - | - | - |
| 1788421477 | 15.56° C | 80% | 1003.8 hPa | 0 mm | - | - | - |
| 1788420277 | 15.56° C | 81% | 1003.8 hPa | 0 mm | - | - | - |
| 1788419077 | 15° C | 82% | 1003.8 hPa | 0 mm | - | - | - |
| 1788417878 | 14.44° C | 84% | 1003.9 hPa | 0 mm | - | - | - |
| 1788415476 | 13.33° C | 87% | 1004 hPa | 0 mm | - | - | - |
| 1788414276 | 12.22° C | 90% | 1004.1 hPa | 0.25 mm | - | - | - |
* Rain latest hour (hover to see other rain measurements)
** Current wind speed in m/s (hover to see current wind gust speed)